メインページ
METAR-TAF:

METAR-TAF

空港 :

Jackson County Airport (Reynolds Field)

ジャクソン, ミシガン州, アメリカ合衆国

緯度: 42-15-35N, 経度: 084-27-34W, 海抜: 305m

現時点の気象観測

当レポートは1時間8分前の15:56(UTC)に作成
北西の風 4kt
気温 24°C
湿度 89%
気圧 1015 hPa
視程: 16.1km
高度2500ftの千切れ雲あり

METAR: KJXN 211556Z 32004KT 10SM BKN025 24/22 A2998 RMK AO2 SLP146 T02440217

時間: 13:04 (17:04 UTC)

予報

当レポートは55分前の16:09(UTC)に作成
予報は21日の 16時(UTC)から 22日の 12時(UTC)まで有効
北西の風 4kt
視程: 10km
高度2500ftの千切れ雲あり
21日の 1800時(UTC)から
北東の風 6kt
視程: 10km
高度3500ftの曇り
21日の 2000時(UTC)から
北東の風 4kt
視程: 10km
高度6000ftの曇り

TAF: KJXN 211609Z 2116/2212 32004KT P6SM BKN025 FM211800 05006KT P6SM OVC035 FM212000 04004KT P6SM OVC060

4,000以上の空港の気象観測と天気予報(METAR報とTAF報)

利用可能な観測所は地図上に黄色い丸と赤い丸で示す。

丸の上にカーソルを重ねると観測所名を参照できる。

次にクリックすると気象観測と天気予報を参照できる。

マップの切り替え:黒色「×」印の緑ボタンをクリックして拡大、「-」印の緑ボタンをクリックして縮小、緑色の三角印をクリックして隣りの地図に切り替え


METAR-TAF: